Terminal Aerodrome Forecast
Issued by NWS

Current Version | Previous Version | Text Only | Print | Product List | Glossary Off
Versions: 1 2 3 4 5 6 7 8 9 10 11 12 13 14 15 16 17 18 19 20 21 22 23 24 25 26 27

000
FTUS41 KILN 240500 RRA
TAFLUK
TAF
KLUK 240544Z 2406/2506 VRB02KT 4SM BR SCT022 OVC070
      TEMPO 2406/2408 BKN022 OVC070
     FM241200 12004KT 4SM -SHRA BR OVC018
     FM241600 17008KT 5SM BR VCSH BKN010 OVC015
     FM241900 22014G22KT P6SM -SHRA OVC018
     FM242200 24022G36KT P6SM OVC018
     FM250200 24016G26KT P6SM OVC022=

USA.gov is the U.S. government's official web portal to all federal, state and local government web resources and services.